sensor_id;sensor_type;location;lat;lon;timestamp;P1;durP1;ratioP1;P2;durP2;ratioP2
57401;SDS011;43226;51.110;6.998;2022-08-01T00:01:30;5.90;;;3.40;;
57401;SDS011;43226;51.110;6.998;2022-08-01T00:03:55;4.70;;;3.30;;
57401;SDS011;43226;51.110;6.998;2022-08-01T00:06:20;4.57;;;3.83;;
57401;SDS011;43226;51.110;6.998;2022-08-01T00:08:45;4.67;;;3.30;;
57401;SDS011;43226;51.110;6.998;2022-08-01T00:11:11;9.30;;;3.70;;
57401;SDS011;43226;51.110;6.998;2022-08-01T00:13:36;5.60;;;3.80;;
57401;SDS011;43226;51.110;6.998;2022-08-01T00:16:01;4.90;;;3.00;;
57401;SDS011;43226;51.110;6.998;2022-08-01T00:18:26;5.33;;;3.10;;
57401;SDS011;43226;51.110;6.998;2022-08-01T00:20:52;3.70;;;2.90;;
57401;SDS011;43226;51.110;6.998;2022-08-01T00:23:17;5.60;;;3.37;;
57401;SDS011;43226;51.110;6.998;2022-08-01T00:25:42;4.77;;;2.80;;
57401;SDS011;43226;51.110;6.998;2022-08-01T00:28:07;3.53;;;3.13;;
57401;SDS011;43226;51.110;6.998;2022-08-01T00:30:33;5.80;;;3.00;;
57401;SDS011;43226;51.110;6.998;2022-08-01T00:32:59;4.20;;;3.30;;
57401;SDS011;43226;51.110;6.998;2022-08-01T00:35:24;2.70;;;2.50;;
57401;SDS011;43226;51.110;6.998;2022-08-01T00:37:49;10.03;;;2.60;;
57401;SDS011;43226;51.110;6.998;2022-08-01T00:40:14;8.50;;;3.10;;
57401;SDS011;43226;51.110;6.998;2022-08-01T00:42:40;3.63;;;2.70;;
57401;SDS011;43226;51.110;6.998;2022-08-01T00:45:06;4.90;;;2.83;;
57401;SDS011;43226;51.110;6.998;2022-08-01T00:47:31;3.30;;;2.60;;
57401;SDS011;43226;51.110;6.998;2022-08-01T00:49:57;5.67;;;2.40;;
57401;SDS011;43226;51.110;6.998;2022-08-01T00:52:22;4.10;;;3.00;;
57401;SDS011;43226;51.110;6.998;2022-08-01T00:54:47;7.10;;;3.27;;
57401;SDS011;43226;51.110;6.998;2022-08-01T00:57:12;4.47;;;2.60;;
57401;SDS011;43226;51.110;6.998;2022-08-01T00:59:38;4.17;;;2.87;;
57401;SDS011;43226;51.110;6.998;2022-08-01T01:02:03;3.83;;;2.90;;
57401;SDS011;43226;51.110;6.998;2022-08-01T01:04:29;4.40;;;2.63;;
57401;SDS011;43226;51.110;6.998;2022-08-01T01:14:30;3.13;;;2.83;;
57401;SDS011;43226;51.110;6.998;2022-08-01T01:16:55;5.03;;;3.40;;
57401;SDS011;43226;51.110;6.998;2022-08-01T01:19:23;4.83;;;3.40;;
57401;SDS011;43226;51.110;6.998;2022-08-01T01:24:21;3.37;;;2.80;;
57401;SDS011;43226;51.110;6.998;2022-08-01T01:29:23;3.97;;;3.47;;
57401;SDS011;43226;51.110;6.998;2022-08-01T01:32:06;5.47;;;2.80;;
57401;SDS011;43226;51.110;6.998;2022-08-01T01:34:33;4.60;;;3.07;;
57401;SDS011;43226;51.110;6.998;2022-08-01T01:36:59;5.20;;;3.57;;
57401;SDS011;43226;51.110;6.998;2022-08-01T01:39:26;7.20;;;4.10;;
57401;SDS011;43226;51.110;6.998;2022-08-01T01:41:53;6.13;;;3.50;;
57401;SDS011;43226;51.110;6.998;2022-08-01T01:44:19;4.00;;;3.00;;
57401;SDS011;43226;51.110;6.998;2022-08-01T01:46:44;4.80;;;3.80;;
57401;SDS011;43226;51.110;6.998;2022-08-01T01:49:11;6.93;;;3.50;;
57401;SDS011;43226;51.110;6.998;2022-08-01T01:51:36;7.07;;;3.73;;
57401;SDS011;43226;51.110;6.998;2022-08-01T01:54:02;5.20;;;3.40;;
57401;SDS011;43226;51.110;6.998;2022-08-01T01:56:27;4.63;;;3.23;;
57401;SDS011;43226;51.110;6.998;2022-08-01T01:58:55;14.43;;;3.70;;
57401;SDS011;43226;51.110;6.998;2022-08-01T02:01:21;5.70;;;3.70;;
57401;SDS011;43226;51.110;6.998;2022-08-01T02:03:49;4.17;;;3.77;;
57401;SDS011;43226;51.110;6.998;2022-08-01T02:06:14;5.80;;;3.80;;
57401;SDS011;43226;51.110;6.998;2022-08-01T02:08:41;6.37;;;3.77;;
57401;SDS011;43226;51.110;6.998;2022-08-01T02:11:07;7.80;;;3.57;;
57401;SDS011;43226;51.110;6.998;2022-08-01T02:13:46;4.17;;;3.77;;
57401;SDS011;43226;51.110;6.998;2022-08-01T02:16:12;3.53;;;3.23;;
57401;SDS011;43226;51.110;6.998;2022-08-01T02:18:38;4.50;;;4.00;;
57401;SDS011;43226;51.110;6.998;2022-08-01T02:21:04;5.83;;;3.60;;
57401;SDS011;43226;51.110;6.998;2022-08-01T02:23:31;6.73;;;3.60;;
57401;SDS011;43226;51.110;6.998;2022-08-01T02:25:57;4.03;;;3.10;;
57401;SDS011;43226;51.110;6.998;2022-08-01T02:28:24;6.90;;;4.20;;
57401;SDS011;43226;51.110;6.998;2022-08-01T02:30:53;4.47;;;2.60;;
57401;SDS011;43226;51.110;6.998;2022-08-01T02:33:20;6.27;;;3.20;;
57401;SDS011;43226;51.110;6.998;2022-08-01T02:35:48;15.13;;;3.50;;
57401;SDS011;43226;51.110;6.998;2022-08-01T02:38:14;3.50;;;3.20;;
57401;SDS011;43226;51.110;6.998;2022-08-01T02:40:41;5.77;;;3.40;;
57401;SDS011;43226;51.110;6.998;2022-08-01T02:43:08;3.47;;;2.80;;
57401;SDS011;43226;51.110;6.998;2022-08-01T02:45:34;5.57;;;3.33;;
57401;SDS011;43226;51.110;6.998;2022-08-01T02:48:01;7.77;;;3.60;;
57401;SDS011;43226;51.110;6.998;2022-08-01T02:50:29;3.40;;;2.97;;
57401;SDS011;43226;51.110;6.998;2022-08-01T02:52:54;5.90;;;3.40;;
57401;SDS011;43226;51.110;6.998;2022-08-01T02:55:21;4.93;;;3.50;;
57401;SDS011;43226;51.110;6.998;2022-08-01T02:57:47;4.97;;;3.30;;
57401;SDS011;43226;51.110;6.998;2022-08-01T03:00:15;6.10;;;3.40;;
57401;SDS011;43226;51.110;6.998;2022-08-01T03:02:40;4.17;;;3.30;;
57401;SDS011;43226;51.110;6.998;2022-08-01T03:05:06;5.83;;;3.00;;
57401;SDS011;43226;51.110;6.998;2022-08-01T03:07:33;5.30;;;3.20;;
57401;SDS011;43226;51.110;6.998;2022-08-01T03:09:58;3.97;;;3.40;;
57401;SDS011;43226;51.110;6.998;2022-08-01T03:12:26;6.57;;;3.33;;
57401;SDS011;43226;51.110;6.998;2022-08-01T03:14:51;3.90;;;3.50;;
57401;SDS011;43226;51.110;6.998;2022-08-01T03:17:18;5.40;;;3.90;;
57401;SDS011;43226;51.110;6.998;2022-08-01T03:19:45;5.23;;;3.20;;
57401;SDS011;43226;51.110;6.998;2022-08-01T03:22:11;5.13;;;3.20;;
57401;SDS011;43226;51.110;6.998;2022-08-01T03:24:38;6.10;;;3.90;;
57401;SDS011;43226;51.110;6.998;2022-08-01T03:27:04;10.07;;;4.10;;
57401;SDS011;43226;51.110;6.998;2022-08-01T03:29:29;5.03;;;3.90;;
57401;SDS011;43226;51.110;6.998;2022-08-01T03:31:55;10.30;;;4.23;;
57401;SDS011;43226;51.110;6.998;2022-08-01T03:34:21;7.53;;;3.77;;
57401;SDS011;43226;51.110;6.998;2022-08-01T03:36:50;6.20;;;3.80;;
57401;SDS011;43226;51.110;6.998;2022-08-01T03:39:17;11.30;;;4.47;;
57401;SDS011;43226;51.110;6.998;2022-08-01T03:41:46;7.33;;;4.00;;
57401;SDS011;43226;51.110;6.998;2022-08-01T03:44:14;4.17;;;3.50;;
57401;SDS011;43226;51.110;6.998;2022-08-01T03:46:45;5.43;;;4.10;;
57401;SDS011;43226;51.110;6.998;2022-08-01T03:49:12;4.57;;;3.97;;
57401;SDS011;43226;51.110;6.998;2022-08-01T03:51:39;8.93;;;4.30;;
57401;SDS011;43226;51.110;6.998;2022-08-01T03:54:05;7.03;;;4.10;;
57401;SDS011;43226;51.110;6.998;2022-08-01T03:56:31;5.90;;;4.50;;
57401;SDS011;43226;51.110;6.998;2022-08-01T03:58:58;11.67;;;4.43;;
57401;SDS011;43226;51.110;6.998;2022-08-01T04:01:24;8.40;;;5.00;;
57401;SDS011;43226;51.110;6.998;2022-08-01T04:03:49;7.53;;;4.33;;
57401;SDS011;43226;51.110;6.998;2022-08-01T04:06:14;6.03;;;4.80;;
57401;SDS011;43226;51.110;6.998;2022-08-01T04:08:40;7.97;;;4.80;;
57401;SDS011;43226;51.110;6.998;2022-08-01T04:11:07;5.40;;;4.50;;
57401;SDS011;43226;51.110;6.998;2022-08-01T04:13:33;7.67;;;4.57;;
57401;SDS011;43226;51.110;6.998;2022-08-01T04:15:58;7.30;;;5.03;;
57401;SDS011;43226;51.110;6.998;2022-08-01T04:18:23;8.50;;;5.33;;
57401;SDS011;43226;51.110;6.998;2022-08-01T04:20:48;7.73;;;4.83;;
57401;SDS011;43226;51.110;6.998;2022-08-01T04:23:15;5.30;;;4.50;;
57401;SDS011;43226;51.110;6.998;2022-08-01T04:25:40;6.23;;;5.17;;
57401;SDS011;43226;51.110;6.998;2022-08-01T04:28:07;6.20;;;4.67;;
57401;SDS011;43226;51.110;6.998;2022-08-01T04:30:36;9.77;;;5.93;;
57401;SDS011;43226;51.110;6.998;2022-08-01T04:33:03;7.63;;;5.80;;
57401;SDS011;43226;51.110;6.998;2022-08-01T04:35:30;7.87;;;5.77;;
57401;SDS011;43226;51.110;6.998;2022-08-01T04:37:57;7.17;;;5.33;;
57401;SDS011;43226;51.110;6.998;2022-08-01T04:40:24;9.57;;;5.90;;
57401;SDS011;43226;51.110;6.998;2022-08-01T04:42:51;6.20;;;5.60;;
57401;SDS011;43226;51.110;6.998;2022-08-01T04:45:16;9.57;;;6.40;;
57401;SDS011;43226;51.110;6.998;2022-08-01T04:47:41;13.67;;;7.37;;
57401;SDS011;43226;51.110;6.998;2022-08-01T04:50:07;11.97;;;6.93;;
57401;SDS011;43226;51.110;6.998;2022-08-01T04:52:36;11.73;;;7.60;;
57401;SDS011;43226;51.110;6.998;2022-08-01T04:55:02;10.20;;;6.80;;
57401;SDS011;43226;51.110;6.998;2022-08-01T04:57:28;9.73;;;6.60;;
57401;SDS011;43226;51.110;6.998;2022-08-01T04:59:53;11.40;;;7.80;;
57401;SDS011;43226;51.110;6.998;2022-08-01T05:02:22;11.50;;;7.80;;
57401;SDS011;43226;51.110;6.998;2022-08-01T05:04:47;11.70;;;7.87;;
57401;SDS011;43226;51.110;6.998;2022-08-01T05:07:13;10.07;;;8.27;;
57401;SDS011;43226;51.110;6.998;2022-08-01T05:09:38;14.43;;;9.30;;
57401;SDS011;43226;51.110;6.998;2022-08-01T05:12:04;17.43;;;10.33;;
57401;SDS011;43226;51.110;6.998;2022-08-01T05:14:30;14.83;;;9.30;;
57401;SDS011;43226;51.110;6.998;2022-08-01T05:16:59;12.50;;;8.37;;
57401;SDS011;43226;51.110;6.998;2022-08-01T05:19:24;15.97;;;8.87;;
57401;SDS011;43226;51.110;6.998;2022-08-01T05:21:50;11.70;;;8.53;;
57401;SDS011;43226;51.110;6.998;2022-08-01T05:24:15;17.77;;;10.60;;
57401;SDS011;43226;51.110;6.998;2022-08-01T05:26:40;18.30;;;9.37;;
57401;SDS011;43226;51.110;6.998;2022-08-01T05:29:05;15.20;;;10.33;;
57401;SDS011;43226;51.110;6.998;2022-08-01T05:31:30;15.27;;;10.53;;
57401;SDS011;43226;51.110;6.998;2022-08-01T05:33:59;19.70;;;11.30;;
57401;SDS011;43226;51.110;6.998;2022-08-01T05:36:24;15.40;;;10.90;;
57401;SDS011;43226;51.110;6.998;2022-08-01T05:38:49;18.50;;;12.20;;
57401;SDS011;43226;51.110;6.998;2022-08-01T05:41:14;18.50;;;12.00;;
57401;SDS011;43226;51.110;6.998;2022-08-01T05:43:39;21.47;;;11.63;;
57401;SDS011;43226;51.110;6.998;2022-08-01T05:46:05;19.03;;;11.17;;
57401;SDS011;43226;51.110;6.998;2022-08-01T05:48:30;16.50;;;11.40;;
57401;SDS011;43226;51.110;6.998;2022-08-01T05:50:55;19.00;;;11.70;;
57401;SDS011;43226;51.110;6.998;2022-08-01T05:53:20;15.47;;;11.60;;
57401;SDS011;43226;51.110;6.998;2022-08-01T05:55:45;21.40;;;11.93;;
57401;SDS011;43226;51.110;6.998;2022-08-01T05:58:11;15.37;;;10.70;;
57401;SDS011;43226;51.110;6.998;2022-08-01T06:00:36;14.23;;;10.30;;
57401;SDS011;43226;51.110;6.998;2022-08-01T06:03:01;15.10;;;10.97;;
57401;SDS011;43226;51.110;6.998;2022-08-01T06:05:26;15.50;;;10.73;;
57401;SDS011;43226;51.110;6.998;2022-08-01T06:07:51;14.13;;;9.90;;
57401;SDS011;43226;51.110;6.998;2022-08-01T06:10:17;16.40;;;10.33;;
57401;SDS011;43226;51.110;6.998;2022-08-01T06:12:42;15.70;;;9.47;;
57401;SDS011;43226;51.110;6.998;2022-08-01T06:15:07;13.77;;;9.73;;
57401;SDS011;43226;51.110;6.998;2022-08-01T06:17:33;14.77;;;10.33;;
57401;SDS011;43226;51.110;6.998;2022-08-01T06:19:58;14.17;;;9.33;;
57401;SDS011;43226;51.110;6.998;2022-08-01T06:22:24;14.80;;;10.20;;
57401;SDS011;43226;51.110;6.998;2022-08-01T06:24:49;14.23;;;10.17;;
57401;SDS011;43226;51.110;6.998;2022-08-01T06:27:14;15.30;;;10.90;;
57401;SDS011;43226;51.110;6.998;2022-08-01T06:29:39;15.47;;;10.20;;
57401;SDS011;43226;51.110;6.998;2022-08-01T06:32:05;22.93;;;12.30;;
57401;SDS011;43226;51.110;6.998;2022-08-01T06:34:32;14.53;;;10.60;;
57401;SDS011;43226;51.110;6.998;2022-08-01T06:36:57;15.90;;;10.40;;
57401;SDS011;43226;51.110;6.998;2022-08-01T06:39:22;18.77;;;9.07;;
57401;SDS011;43226;51.110;6.998;2022-08-01T06:41:47;13.90;;;9.27;;
57401;SDS011;43226;51.110;6.998;2022-08-01T06:44:13;16.63;;;10.23;;
57401;SDS011;43226;51.110;6.998;2022-08-01T06:46:38;17.27;;;11.53;;
57401;SDS011;43226;51.110;6.998;2022-08-01T06:49:03;14.20;;;10.23;;
57401;SDS011;43226;51.110;6.998;2022-08-01T06:51:28;16.10;;;9.60;;
57401;SDS011;43226;51.110;6.998;2022-08-01T06:53:54;14.23;;;10.63;;
57401;SDS011;43226;51.110;6.998;2022-08-01T06:56:19;13.63;;;9.67;;
57401;SDS011;43226;51.110;6.998;2022-08-01T06:58:44;16.17;;;10.70;;
57401;SDS011;43226;51.110;6.998;2022-08-01T07:01:09;15.03;;;11.23;;
57401;SDS011;43226;51.110;6.998;2022-08-01T07:03:35;12.30;;;9.60;;
57401;SDS011;43226;51.110;6.998;2022-08-01T07:06:00;12.00;;;8.53;;
57401;SDS011;43226;51.110;6.998;2022-08-01T07:08:26;13.80;;;9.10;;
57401;SDS011;43226;51.110;6.998;2022-08-01T07:10:51;10.80;;;9.10;;
57401;SDS011;43226;51.110;6.998;2022-08-01T07:13:17;10.10;;;8.97;;
57401;SDS011;43226;51.110;6.998;2022-08-01T07:15:46;13.37;;;9.27;;
57401;SDS011;43226;51.110;6.998;2022-08-01T07:18:11;11.47;;;9.23;;
57401;SDS011;43226;51.110;6.998;2022-08-01T07:20:37;15.60;;;9.40;;
57401;SDS011;43226;51.110;6.998;2022-08-01T07:23:02;11.37;;;9.10;;
57401;SDS011;43226;51.110;6.998;2022-08-01T07:25:27;12.30;;;8.17;;
57401;SDS011;43226;51.110;6.998;2022-08-01T07:27:52;11.13;;;7.90;;
57401;SDS011;43226;51.110;6.998;2022-08-01T07:30:18;10.27;;;7.17;;
57401;SDS011;43226;51.110;6.998;2022-08-01T07:32:43;16.83;;;8.30;;
57401;SDS011;43226;51.110;6.998;2022-08-01T07:35:08;10.60;;;8.20;;
57401;SDS011;43226;51.110;6.998;2022-08-01T07:37:33;8.60;;;7.30;;
57401;SDS011;43226;51.110;6.998;2022-08-01T07:39:59;11.17;;;7.57;;
57401;SDS011;43226;51.110;6.998;2022-08-01T07:42:24;7.83;;;7.00;;
57401;SDS011;43226;51.110;6.998;2022-08-01T07:44:49;9.17;;;8.23;;
57401;SDS011;43226;51.110;6.998;2022-08-01T07:47:14;8.67;;;7.03;;
57401;SDS011;43226;51.110;6.998;2022-08-01T07:49:40;6.97;;;6.27;;
57401;SDS011;43226;51.110;6.998;2022-08-01T07:52:06;9.93;;;8.13;;
57401;SDS011;43226;51.110;6.998;2022-08-01T07:54:31;8.83;;;6.73;;
57401;SDS011;43226;51.110;6.998;2022-08-01T07:56:57;8.70;;;7.40;;
57401;SDS011;43226;51.110;6.998;2022-08-01T07:59:22;10.10;;;8.13;;
57401;SDS011;43226;51.110;6.998;2022-08-01T08:01:49;9.47;;;7.67;;
57401;SDS011;43226;51.110;6.998;2022-08-01T08:04:15;11.77;;;8.17;;
57401;SDS011;43226;51.110;6.998;2022-08-01T08:06:40;11.00;;;7.70;;
57401;SDS011;43226;51.110;6.998;2022-08-01T08:09:06;12.57;;;7.67;;
57401;SDS011;43226;51.110;6.998;2022-08-01T08:11:31;8.13;;;6.40;;
57401;SDS011;43226;51.110;6.998;2022-08-01T08:13:57;6.70;;;5.70;;
57401;SDS011;43226;51.110;6.998;2022-08-01T08:16:22;7.37;;;6.13;;
57401;SDS011;43226;51.110;6.998;2022-08-01T08:18:47;7.00;;;5.00;;
57401;SDS011;43226;51.110;6.998;2022-08-01T08:21:13;5.67;;;4.90;;
57401;SDS011;43226;51.110;6.998;2022-08-01T08:23:38;5.30;;;4.80;;
57401;SDS011;43226;51.110;6.998;2022-08-01T08:26:22;7.03;;;5.90;;
57401;SDS011;43226;51.110;6.998;2022-08-01T08:28:48;11.17;;;5.80;;
57401;SDS011;43226;51.110;6.998;2022-08-01T08:31:13;7.40;;;5.67;;
57401;SDS011;43226;51.110;6.998;2022-08-01T08:33:38;8.63;;;6.50;;
57401;SDS011;43226;51.110;6.998;2022-08-01T08:36:04;6.23;;;5.60;;
57401;SDS011;43226;51.110;6.998;2022-08-01T08:38:29;6.47;;;5.70;;
57401;SDS011;43226;51.110;6.998;2022-08-01T08:40:54;7.33;;;6.20;;
57401;SDS011;43226;51.110;6.998;2022-08-01T08:43:20;10.27;;;5.47;;
57401;SDS011;43226;51.110;6.998;2022-08-01T08:45:45;4.53;;;4.03;;
57401;SDS011;43226;51.110;6.998;2022-08-01T08:48:11;5.73;;;3.70;;
57401;SDS011;43226;51.110;6.998;2022-08-01T08:50:37;4.80;;;4.30;;
57401;SDS011;43226;51.110;6.998;2022-08-01T08:53:02;5.43;;;3.97;;
57401;SDS011;43226;51.110;6.998;2022-08-01T08:55:28;3.60;;;3.30;;
57401;SDS011;43226;51.110;6.998;2022-08-01T08:57:53;3.33;;;3.13;;
57401;SDS011;43226;51.110;6.998;2022-08-01T09:00:19;4.83;;;2.90;;
57401;SDS011;43226;51.110;6.998;2022-08-01T09:02:45;4.83;;;3.60;;
57401;SDS011;43226;51.110;6.998;2022-08-01T09:05:11;4.53;;;3.77;;
57401;SDS011;43226;51.110;6.998;2022-08-01T09:07:36;4.20;;;3.60;;
57401;SDS011;43226;51.110;6.998;2022-08-01T09:10:02;3.00;;;2.80;;
57401;SDS011;43226;51.110;6.998;2022-08-01T09:12:28;7.10;;;3.10;;
57401;SDS011;43226;51.110;6.998;2022-08-01T09:14:53;4.23;;;3.07;;
57401;SDS011;43226;51.110;6.998;2022-08-01T09:17:19;3.60;;;3.30;;
57401;SDS011;43226;51.110;6.998;2022-08-01T09:19:46;3.43;;;3.13;;
57401;SDS011;43226;51.110;6.998;2022-08-01T09:22:13;3.50;;;3.20;;
57401;SDS011;43226;51.110;6.998;2022-08-01T09:24:42;4.83;;;3.90;;
57401;SDS011;43226;51.110;6.998;2022-08-01T09:27:21;4.43;;;4.03;;
57401;SDS011;43226;51.110;6.998;2022-08-01T09:29:48;4.80;;;3.77;;
57401;SDS011;43226;51.110;6.998;2022-08-01T09:32:15;3.53;;;3.23;;
57401;SDS011;43226;51.110;6.998;2022-08-01T09:34:40;3.50;;;3.20;;
57401;SDS011;43226;51.110;6.998;2022-08-01T09:37:05;4.63;;;3.47;;
57401;SDS011;43226;51.110;6.998;2022-08-01T09:39:32;4.43;;;4.03;;
57401;SDS011;43226;51.110;6.998;2022-08-01T09:42:00;7.87;;;3.57;;
57401;SDS011;43226;51.110;6.998;2022-08-01T09:47:03;5.53;;;3.20;;
57401;SDS011;43226;51.110;6.998;2022-08-01T09:49:29;4.03;;;3.40;;
57401;SDS011;43226;51.110;6.998;2022-08-01T09:51:55;5.63;;;4.13;;
57401;SDS011;43226;51.110;6.998;2022-08-01T09:54:31;3.47;;;3.17;;
57401;SDS011;43226;51.110;6.998;2022-08-01T09:57:06;4.80;;;4.30;;
57401;SDS011;43226;51.110;6.998;2022-08-01T09:59:35;4.80;;;3.70;;
57401;SDS011;43226;51.110;6.998;2022-08-01T10:02:02;6.20;;;3.70;;
57401;SDS011;43226;51.110;6.998;2022-08-01T10:04:27;7.83;;;4.63;;
57401;SDS011;43226;51.110;6.998;2022-08-01T10:06:53;4.00;;;3.50;;
57401;SDS011;43226;51.110;6.998;2022-08-01T10:09:28;3.63;;;3.20;;
57401;SDS011;43226;51.110;6.998;2022-08-01T10:11:54;3.27;;;3.07;;
57401;SDS011;43226;51.110;6.998;2022-08-01T10:14:19;3.07;;;2.77;;
57401;SDS011;43226;51.110;6.998;2022-08-01T10:16:45;3.10;;;2.80;;
57401;SDS011;43226;51.110;6.998;2022-08-01T10:19:10;3.27;;;2.97;;
57401;SDS011;43226;51.110;6.998;2022-08-01T10:21:36;2.87;;;2.67;;
57401;SDS011;43226;51.110;6.998;2022-08-01T10:24:01;3.77;;;3.30;;
57401;SDS011;43226;51.110;6.998;2022-08-01T10:26:27;2.67;;;2.47;;
57401;SDS011;43226;51.110;6.998;2022-08-01T10:28:54;8.33;;;3.37;;
57401;SDS011;43226;51.110;6.998;2022-08-01T10:31:20;4.20;;;2.80;;
57401;SDS011;43226;51.110;6.998;2022-08-01T10:33:45;4.43;;;2.93;;
57401;SDS011;43226;51.110;6.998;2022-08-01T10:36:10;4.70;;;3.00;;
57401;SDS011;43226;51.110;6.998;2022-08-01T10:38:36;7.37;;;3.47;;
57401;SDS011;43226;51.110;6.998;2022-08-01T10:41:02;3.63;;;3.03;;
57401;SDS011;43226;51.110;6.998;2022-08-01T10:43:27;3.60;;;2.97;;
57401;SDS011;43226;51.110;6.998;2022-08-01T10:45:52;4.23;;;2.70;;
57401;SDS011;43226;51.110;6.998;2022-08-01T10:48:20;3.23;;;2.93;;
57401;SDS011;43226;51.110;6.998;2022-08-01T10:50:51;6.67;;;3.50;;
57401;SDS011;43226;51.110;6.998;2022-08-01T10:53:20;4.03;;;3.30;;
57401;SDS011;43226;51.110;6.998;2022-08-01T10:58:19;3.57;;;3.10;;
57401;SDS011;43226;51.110;6.998;2022-08-01T11:00:45;6.70;;;3.47;;
57401;SDS011;43226;51.110;6.998;2022-08-01T11:03:10;2.90;;;2.70;;
57401;SDS011;43226;51.110;6.998;2022-08-01T11:05:35;3.00;;;2.63;;
57401;SDS011;43226;51.110;6.998;2022-08-01T11:08:01;3.90;;;3.53;;
57401;SDS011;43226;51.110;6.998;2022-08-01T11:12:53;3.03;;;2.83;;
57401;SDS011;43226;51.110;6.998;2022-08-01T11:15:19;3.17;;;2.87;;
57401;SDS011;43226;51.110;6.998;2022-08-01T11:17:49;2.50;;;2.30;;
57401;SDS011;43226;51.110;6.998;2022-08-01T11:30:43;2.40;;;2.20;;
57401;SDS011;43226;51.110;6.998;2022-08-01T11:33:09;2.67;;;2.47;;
57401;SDS011;43226;51.110;6.998;2022-08-01T11:35:35;3.63;;;2.63;;
57401;SDS011;43226;51.110;6.998;2022-08-01T11:40:44;3.03;;;2.20;;
57401;SDS011;43226;51.110;6.998;2022-08-01T11:45:50;1.93;;;1.83;;
57401;SDS011;43226;51.110;6.998;2022-08-01T11:48:20;2.50;;;2.30;;
57401;SDS011;43226;51.110;6.998;2022-08-01T11:50:46;2.20;;;2.00;;
57401;SDS011;43226;51.110;6.998;2022-08-01T11:53:11;2.10;;;1.77;;
57401;SDS011;43226;51.110;6.998;2022-08-01T11:55:43;1.70;;;1.60;;
57401;SDS011;43226;51.110;6.998;2022-08-01T11:58:08;2.97;;;1.97;;
57401;SDS011;43226;51.110;6.998;2022-08-01T12:00:33;2.00;;;1.57;;
57401;SDS011;43226;51.110;6.998;2022-08-01T12:03:00;3.10;;;2.00;;
57401;SDS011;43226;51.110;6.998;2022-08-01T12:05:26;2.23;;;1.93;;
57401;SDS011;43226;51.110;6.998;2022-08-01T12:07:52;6.53;;;2.10;;
57401;SDS011;43226;51.110;6.998;2022-08-01T12:10:18;1.70;;;1.60;;
57401;SDS011;43226;51.110;6.998;2022-08-01T12:12:54;1.90;;;1.67;;
57401;SDS011;43226;51.110;6.998;2022-08-01T12:15:21;1.50;;;1.40;;
57401;SDS011;43226;51.110;6.998;2022-08-01T12:17:48;2.10;;;1.90;;
57401;SDS011;43226;51.110;6.998;2022-08-01T12:20:14;1.50;;;1.30;;
57401;SDS011;43226;51.110;6.998;2022-08-01T12:22:40;1.67;;;1.57;;
57401;SDS011;43226;51.110;6.998;2022-08-01T12:25:15;2.77;;;1.70;;
57401;SDS011;43226;51.110;6.998;2022-08-01T12:27:42;2.10;;;1.80;;
57401;SDS011;43226;51.110;6.998;2022-08-01T12:30:12;2.00;;;1.80;;
57401;SDS011;43226;51.110;6.998;2022-08-01T12:32:38;2.20;;;1.30;;
57401;SDS011;43226;51.110;6.998;2022-08-01T12:35:07;1.60;;;1.43;;
57401;SDS011;43226;51.110;6.998;2022-08-01T12:37:37;1.40;;;1.30;;
57401;SDS011;43226;51.110;6.998;2022-08-01T12:40:09;3.03;;;1.30;;
57401;SDS011;43226;51.110;6.998;2022-08-01T12:42:36;3.73;;;1.50;;
57401;SDS011;43226;51.110;6.998;2022-08-01T12:45:01;2.53;;;1.60;;
57401;SDS011;43226;51.110;6.998;2022-08-01T12:47:26;1.53;;;1.43;;
57401;SDS011;43226;51.110;6.998;2022-08-01T12:49:52;1.43;;;1.33;;
57401;SDS011;43226;51.110;6.998;2022-08-01T12:52:17;1.40;;;1.23;;
57401;SDS011;43226;51.110;6.998;2022-08-01T12:55:03;1.63;;;1.53;;
57401;SDS011;43226;51.110;6.998;2022-08-01T12:57:29;1.60;;;1.40;;
57401;SDS011;43226;51.110;6.998;2022-08-01T13:02:32;2.17;;;1.60;;
57401;SDS011;43226;51.110;6.998;2022-08-01T13:04:58;1.70;;;1.60;;
57401;SDS011;43226;51.110;6.998;2022-08-01T13:07:34;1.77;;;1.67;;
57401;SDS011;43226;51.110;6.998;2022-08-01T13:09:59;8.13;;;1.83;;
57401;SDS011;43226;51.110;6.998;2022-08-01T13:12:24;2.20;;;2.00;;
57401;SDS011;43226;51.110;6.998;2022-08-01T13:14:49;2.57;;;1.47;;
57401;SDS011;43226;51.110;6.998;2022-08-01T13:17:29;5.67;;;1.80;;
57401;SDS011;43226;51.110;6.998;2022-08-01T13:19:54;1.50;;;1.40;;
57401;SDS011;43226;51.110;6.998;2022-08-01T13:22:19;1.63;;;1.53;;
57401;SDS011;43226;51.110;6.998;2022-08-01T13:24:45;1.87;;;1.63;;
57401;SDS011;43226;51.110;6.998;2022-08-01T13:27:19;1.70;;;1.57;;
57401;SDS011;43226;51.110;6.998;2022-08-01T13:29:45;2.00;;;1.30;;
57401;SDS011;43226;51.110;6.998;2022-08-01T13:32:13;1.50;;;1.40;;
57401;SDS011;43226;51.110;6.998;2022-08-01T13:34:38;1.50;;;1.37;;
57401;SDS011;43226;51.110;6.998;2022-08-01T13:37:04;2.80;;;1.37;;
57401;SDS011;43226;51.110;6.998;2022-08-01T13:39:29;1.60;;;1.50;;
57401;SDS011;43226;51.110;6.998;2022-08-01T13:42:15;1.57;;;1.47;;
57401;SDS011;43226;51.110;6.998;2022-08-01T13:44:41;1.30;;;1.20;;
57401;SDS011;43226;51.110;6.998;2022-08-01T13:47:07;1.63;;;1.50;;
57401;SDS011;43226;51.110;6.998;2022-08-01T13:49:32;2.17;;;1.67;;
57401;SDS011;43226;51.110;6.998;2022-08-01T13:51:58;1.70;;;1.60;;
57401;SDS011;43226;51.110;6.998;2022-08-01T13:54:23;1.60;;;1.50;;
57401;SDS011;43226;51.110;6.998;2022-08-01T13:56:49;1.93;;;1.83;;
57401;SDS011;43226;51.110;6.998;2022-08-01T13:59:14;2.27;;;1.67;;
57401;SDS011;43226;51.110;6.998;2022-08-01T14:01:40;2.73;;;1.63;;
57401;SDS011;43226;51.110;6.998;2022-08-01T14:04:05;2.23;;;1.70;;
57401;SDS011;43226;51.110;6.998;2022-08-01T14:06:31;1.77;;;1.57;;
57401;SDS011;43226;51.110;6.998;2022-08-01T14:08:56;3.10;;;2.00;;
57401;SDS011;43226;51.110;6.998;2022-08-01T14:11:21;2.40;;;2.10;;
57401;SDS011;43226;51.110;6.998;2022-08-01T14:13:47;2.13;;;1.93;;
57401;SDS011;43226;51.110;6.998;2022-08-01T14:16:12;2.03;;;1.77;;
57401;SDS011;43226;51.110;6.998;2022-08-01T14:18:37;2.73;;;1.90;;
57401;SDS011;43226;51.110;6.998;2022-08-01T14:21:02;3.30;;;1.60;;
57401;SDS011;43226;51.110;6.998;2022-08-01T14:23:28;2.30;;;1.50;;
57401;SDS011;43226;51.110;6.998;2022-08-01T14:25:53;1.73;;;1.50;;
57401;SDS011;43226;51.110;6.998;2022-08-01T14:28:18;2.13;;;1.60;;
57401;SDS011;43226;51.110;6.998;2022-08-01T14:30:43;3.20;;;1.60;;
57401;SDS011;43226;51.110;6.998;2022-08-01T14:33:09;1.90;;;1.57;;
57401;SDS011;43226;51.110;6.998;2022-08-01T14:35:34;4.50;;;1.47;;
57401;SDS011;43226;51.110;6.998;2022-08-01T14:37:59;2.53;;;1.70;;
57401;SDS011;43226;51.110;6.998;2022-08-01T14:40:24;1.50;;;1.40;;
57401;SDS011;43226;51.110;6.998;2022-08-01T14:42:50;2.13;;;1.90;;
57401;SDS011;43226;51.110;6.998;2022-08-01T14:45:15;2.87;;;1.70;;
57401;SDS011;43226;51.110;6.998;2022-08-01T14:47:41;2.37;;;1.70;;
57401;SDS011;43226;51.110;6.998;2022-08-01T14:50:08;3.33;;;1.83;;
57401;SDS011;43226;51.110;6.998;2022-08-01T14:52:33;1.97;;;1.87;;
57401;SDS011;43226;51.110;6.998;2022-08-01T14:54:59;4.47;;;1.70;;
57401;SDS011;43226;51.110;6.998;2022-08-01T14:57:24;2.03;;;1.93;;
57401;SDS011;43226;51.110;6.998;2022-08-01T14:59:50;1.83;;;1.60;;
57401;SDS011;43226;51.110;6.998;2022-08-01T15:02:15;1.80;;;1.70;;
57401;SDS011;43226;51.110;6.998;2022-08-01T15:04:42;4.83;;;1.93;;
57401;SDS011;43226;51.110;6.998;2022-08-01T15:07:07;2.13;;;2.03;;
57401;SDS011;43226;51.110;6.998;2022-08-01T15:09:32;2.90;;;1.93;;
57401;SDS011;43226;51.110;6.998;2022-08-01T15:11:58;2.20;;;1.90;;
57401;SDS011;43226;51.110;6.998;2022-08-01T15:14:24;2.33;;;2.23;;
57401;SDS011;43226;51.110;6.998;2022-08-01T15:17:08;2.33;;;2.23;;